Time;durP1;ratioP1;P1;durP2;ratioP2;P2;SDS_P1;SDS_P2;PMS_P1;PMS_P2;Temp;Humidity;BMP_temperature;BMP_pressure;BME280_temperature;BME280_humidity;BME280_pressure;Samples;Min_cycle;Max_cycle;Signal;HPM_P1;HPM_P2
2021/05/10 00:00:17;;;;;;;3.22;1.15;;;;;;;;;;4991822;28;20400;-77
2021/05/10 00:02:43;;;;;;;2.25;1.30;;;;;;;;;;5008588;28;20026;-75
2021/05/10 00:05:08;;;;;;;1.88;1.15;;;;;;;;;;5009508;28;20259;-75
2021/05/10 00:07:33;;;;;;;3.03;1.00;;;;;;;;;;5006582;28;20045;-76
2021/05/10 00:09:59;;;;;;;1.50;1.10;;;;;;;;;;5012363;28;20028;-76
2021/05/10 00:12:24;;;;;;;1.63;1.00;;;;;;;;;;5008635;28;20288;-76
2021/05/10 00:14:49;;;;;;;1.92;1.08;;;;;;;;;;5009997;28;20076;-76
2021/05/10 00:17:15;;;;;;;2.47;1.10;;;;;;;;;;5011190;28;20026;-76
2021/05/10 00:19:40;;;;;;;1.80;1.05;;;;;;;;;;5007354;28;20301;-77
2021/05/10 00:22:06;;;;;;;2.42;1.05;;;;;;;;;;5010230;28;20181;-75
2021/05/10 00:24:31;;;;;;;1.50;1.00;;;;;;;;;;5014494;28;20026;-76
2021/05/10 00:26:56;;;;;;;2.85;1.10;;;;;;;;;;5009501;28;20113;-77
2021/05/10 00:29:21;;;;;;;2.58;1.33;;;;;;;;;;5011315;28;20745;-77
2021/05/10 00:31:47;;;;;;;1.73;1.20;;;;;;;;;;5010312;28;20030;-77
2021/05/10 00:34:12;;;;;;;2.05;1.13;;;;;;;;;;5008773;28;20123;-77
2021/05/10 00:36:37;;;;;;;3.38;1.33;;;;;;;;;;5009859;28;20461;-75
2021/05/10 00:39:03;;;;;;;3.42;1.80;;;;;;;;;;5011001;28;20026;-76
2021/05/10 00:41:28;;;;;;;5.10;2.03;;;;;;;;;;5007330;28;20027;-76
2021/05/10 00:43:53;;;;;;;4.43;2.43;;;;;;;;;;5010585;28;20072;-76
2021/05/10 00:46:20;;;;;;;3.75;1.90;;;;;;;;;;5010675;28;20792;-75
2021/05/10 00:48:45;;;;;;;5.65;1.65;;;;;;;;;;5010517;28;20057;-75
2021/05/10 00:51:10;;;;;;;4.97;1.50;;;;;;;;;;5006342;28;20139;-76
2021/05/10 00:53:36;;;;;;;3.00;1.73;;;;;;;;;;5011113;28;20776;-75
2021/05/10 00:56:01;;;;;;;2.10;1.50;;;;;;;;;;5011029;28;20021;-75
2021/05/10 00:58:26;;;;;;;3.80;1.53;;;;;;;;;;5009826;28;20561;-76
2021/05/10 01:00:51;;;;;;;2.25;1.30;;;;;;;;;;5009668;28;20272;-75
2021/05/10 01:03:16;;;;;;;2.78;1.30;;;;;;;;;;5009229;28;20034;-76
2021/05/10 01:05:44;;;;;;;1.50;1.17;;;;;;;;;;5009007;28;20022;-76
2021/05/10 01:08:09;;;;;;;2.72;1.30;;;;;;;;;;5010317;28;20297;-77
2021/05/10 01:10:35;;;;;;;1.77;1.00;;;;;;;;;;5008801;28;20026;-76
2021/05/10 01:13:00;;;;;;;1.73;1.03;;;;;;;;;;5009465;28;20026;-75
2021/05/10 01:15:30;;;;;;;3.70;1.10;;;;;;;;;;5008887;28;20312;-75
2021/05/10 01:17:56;;;;;;;;;;;;;;;;;;5004534;28;20034;-75
2021/05/10 01:20:22;;;;;;;2.67;0.90;;;;;;;;;;5007828;28;20383;-76
2021/05/10 01:22:49;;;;;;;2.47;1.25;;;;;;;;;;5009103;28;20053;-76
2021/05/10 01:25:15;;;;;;;2.25;1.10;;;;;;;;;;5009724;28;20056;-76
2021/05/10 01:27:40;;;;;;;2.83;1.30;;;;;;;;;;5007580;28;20031;-76
2021/05/10 01:30:11;;;;;;;3.63;1.20;;;;;;;;;;5008863;28;20026;-75
2021/05/10 01:32:36;;;;;;;3.53;1.38;;;;;;;;;;5009093;28;20144;-74
2021/05/10 01:35:03;;;;;;;2.90;0.98;;;;;;;;;;5006561;28;20092;-75
2021/05/10 01:37:28;;;;;;;2.05;1.20;;;;;;;;;;4975374;28;20117;-74
2021/05/10 01:39:54;;;;;;;2.35;1.20;;;;;;;;;;5009076;28;20121;-74
2021/05/10 01:42:19;;;;;;;1.45;1.10;;;;;;;;;;5008575;28;20057;-76
2021/05/10 01:44:44;;;;;;;2.53;1.07;;;;;;;;;;5008342;28;20469;-76
2021/05/10 01:47:09;;;;;;;1.70;0.90;;;;;;;;;;5009358;28;20292;-74
2021/05/10 01:49:34;;;;;;;1.45;1.10;;;;;;;;;;5008018;28;20386;-75
2021/05/10 01:52:01;;;;;;;1.73;1.23;;;;;;;;;;5003703;28;20068;-76
2021/05/10 01:54:26;;;;;;;1.77;1.27;;;;;;;;;;5005636;28;20081;-75
2021/05/10 01:56:51;;;;;;;3.08;1.20;;;;;;;;;;5008203;28;20065;-76
2021/05/10 01:59:16;;;;;;;2.33;1.07;;;;;;;;;;5008281;28;20025;-77
2021/05/10 02:01:41;;;;;;;1.77;1.20;;;;;;;;;;5007810;28;20308;-75
2021/05/10 02:04:07;;;;;;;2.28;1.40;;;;;;;;;;5006376;28;20437;-75
2021/05/10 02:06:32;;;;;;;2.92;1.27;;;;;;;;;;5010271;28;20599;-76
2021/05/10 02:08:57;;;;;;;3.00;1.00;;;;;;;;;;5009209;28;20373;-76
2021/05/10 02:11:22;;;;;;;2.40;1.00;;;;;;;;;;5007408;28;20381;-76
2021/05/10 02:13:47;;;;;;;1.83;0.90;;;;;;;;;;5007958;28;20372;-76
2021/05/10 02:16:13;;;;;;;1.55;1.00;;;;;;;;;;5008661;28;20507;-76
2021/05/10 02:18:38;;;;;;;1.45;1.13;;;;;;;;;;5010165;28;20033;-75
2021/05/10 02:21:03;;;;;;;2.42;1.10;;;;;;;;;;5011035;28;20772;-74
2021/05/10 02:23:30;;;;;;;1.63;1.00;;;;;;;;;;5010140;28;20556;-75
2021/05/10 02:25:56;;;;;;;2.90;1.33;;;;;;;;;;4989629;28;20779;-76
2021/05/10 02:28:25;;;;;;;1.42;1.02;;;;;;;;;;5016700;28;20018;-77
2021/05/10 02:30:51;;;;;;;2.50;1.10;;;;;;;;;;5010699;28;20017;-74
2021/05/10 02:33:17;;;;;;;1.85;1.02;;;;;;;;;;4989157;28;20557;-77
2021/05/10 02:35:43;;;;;;;2.00;1.02;;;;;;;;;;5008116;28;20045;-76
2021/05/10 02:38:09;;;;;;;1.80;1.02;;;;;;;;;;5007285;28;20034;-76
2021/05/10 02:40:34;;;;;;;1.98;1.00;;;;;;;;;;5008870;28;20025;-76
2021/05/10 02:42:59;;;;;;;1.65;1.10;;;;;;;;;;5007874;28;20469;-74
2021/05/10 02:45:24;;;;;;;1.63;1.20;;;;;;;;;;5007072;28;20021;-76
2021/05/10 02:47:50;;;;;;;2.63;1.00;;;;;;;;;;5007393;28;20320;-76
2021/05/10 02:50:17;;;;;;;3.17;1.42;;;;;;;;;;5006932;28;20155;-76
2021/05/10 02:52:42;;;;;;;2.13;1.30;;;;;;;;;;5007230;28;20049;-76
2021/05/10 02:55:08;;;;;;;2.38;1.27;;;;;;;;;;5008338;28;20493;-76
2021/05/10 02:57:33;;;;;;;3.65;1.10;;;;;;;;;;5006426;28;20453;-76
2021/05/10 02:59:59;;;;;;;1.90;1.13;;;;;;;;;;5007502;28;20029;-75
2021/05/10 03:02:24;;;;;;;5.45;1.35;;;;;;;;;;5007645;28;20547;-77
2021/05/10 03:04:49;;;;;;;2.67;1.33;;;;;;;;;;5006981;28;20088;-76
2021/05/10 03:07:15;;;;;;;2.55;1.08;;;;;;;;;;5007892;28;20025;-76
2021/05/10 03:09:40;;;;;;;2.03;1.25;;;;;;;;;;5009004;28;20460;-74
2021/05/10 03:12:05;;;;;;;3.83;1.40;;;;;;;;;;5007970;28;20022;-76
2021/05/10 03:14:30;;;;;;;2.35;1.35;;;;;;;;;;5007422;28;20087;-76
2021/05/10 03:16:56;;;;;;;2.92;1.50;;;;;;;;;;5007236;28;20041;-77
2021/05/10 03:19:21;;;;;;;3.85;1.42;;;;;;;;;;5007998;28;20030;-76
2021/05/10 03:21:46;;;;;;;2.20;1.33;;;;;;;;;;5004049;28;20421;-76
2021/05/10 03:24:12;;;;;;;2.78;1.13;;;;;;;;;;5008350;28;20101;-77
2021/05/10 03:26:37;;;;;;;2.45;1.13;;;;;;;;;;5006781;28;20503;-74
2021/05/10 03:29:06;;;;;;;2.53;1.00;;;;;;;;;;5006289;28;20119;-75
2021/05/10 03:31:32;;;;;;;3.63;1.33;;;;;;;;;;5005369;28;20121;-76
2021/05/10 03:33:57;;;;;;;2.45;1.10;;;;;;;;;;5006840;28;20113;-76
2021/05/10 03:36:22;;;;;;;4.07;1.30;;;;;;;;;;5006394;28;20759;-75
2021/05/10 03:38:48;;;;;;;5.40;1.23;;;;;;;;;;5006640;28;20018;-76
2021/05/10 03:41:13;;;;;;;1.48;1.00;;;;;;;;;;5009480;28;20033;-77
2021/05/10 03:43:38;;;;;;;3.35;1.30;;;;;;;;;;5007454;28;20057;-75
2021/05/10 03:46:03;;;;;;;1.60;1.10;;;;;;;;;;5005625;28;20037;-76
2021/05/10 03:48:28;;;;;;;2.33;1.20;;;;;;;;;;5007242;28;20319;-75
2021/05/10 03:50:54;;;;;;;2.97;1.20;;;;;;;;;;5008139;28;20022;-76
2021/05/10 03:53:19;;;;;;;2.83;1.33;;;;;;;;;;5006377;28;20026;-76
2021/05/10 03:55:45;;;;;;;2.25;1.23;;;;;;;;;;5012715;28;20044;-76
2021/05/10 03:58:10;;;;;;;4.30;1.27;;;;;;;;;;5007651;28;20084;-75
2021/05/10 04:00:35;;;;;;;1.67;1.10;;;;;;;;;;5007021;28;20034;-75
2021/05/10 04:03:02;;;;;;;3.53;1.20;;;;;;;;;;5005506;28;20069;-75
2021/05/10 04:16:03;;;;;;;2.13;1.20;;;;;;;;;;5005125;28;20026;-75
2021/05/10 04:18:28;;;;;;;1.40;1.00;;;;;;;;;;5008049;28;20539;-77
2021/05/10 04:20:54;;;;;;;2.88;1.20;;;;;;;;;;5005599;28;20105;-76
2021/05/10 04:23:19;;;;;;;2.22;1.10;;;;;;;;;;5009077;28;20037;-76
2021/05/10 04:25:45;;;;;;;3.28;1.50;;;;;;;;;;5014119;28;20054;-76
2021/05/10 04:28:11;;;;;;;2.13;1.25;;;;;;;;;;5011258;28;20025;-77
2021/05/10 04:30:36;;;;;;;2.67;1.10;;;;;;;;;;5011285;28;20049;-76
2021/05/10 04:33:01;;;;;;;5.55;1.50;;;;;;;;;;5008338;28;20508;-75
2021/05/10 04:35:27;;;;;;;4.18;1.40;;;;;;;;;;5010737;28;20021;-77
2021/05/10 04:37:52;;;;;;;2.17;1.38;;;;;;;;;;5010539;28;20436;-77
2021/05/10 04:40:17;;;;;;;3.10;1.10;;;;;;;;;;5007857;28;20089;-78
2021/05/10 04:42:42;;;;;;;4.70;1.15;;;;;;;;;;5010449;28;20436;-76
2021/05/10 04:45:08;;;;;;;5.03;1.43;;;;;;;;;;5010480;28;20018;-77
2021/05/10 04:47:36;;;;;;;1.95;1.17;;;;;;;;;;5011296;28;20273;-76
2021/05/10 04:50:03;;;;;;;2.58;1.30;;;;;;;;;;5011254;28;20026;-77
2021/05/10 04:52:28;;;;;;;2.40;1.13;;;;;;;;;;5013914;28;20045;-76
2021/05/10 04:54:53;;;;;;;2.85;1.10;;;;;;;;;;5017698;28;20049;-77
2021/05/10 04:57:18;;;;;;;2.10;1.27;;;;;;;;;;5020506;28;20037;-77
2021/05/10 04:59:44;;;;;;;1.65;1.10;;;;;;;;;;5019227;28;20344;-77
2021/05/10 05:02:09;;;;;;;2.90;1.30;;;;;;;;;;5013979;28;20040;-74
2021/05/10 05:04:34;;;;;;;2.43;1.33;;;;;;;;;;5012083;28;20265;-74
2021/05/10 05:06:59;;;;;;;2.88;1.40;;;;;;;;;;4995419;28;20285;-75
2021/05/10 05:09:24;;;;;;;3.17;1.40;;;;;;;;;;5011041;28;20053;-74
2021/05/10 05:11:49;;;;;;;5.70;1.40;;;;;;;;;;5013467;28;20024;-74
2021/05/10 05:14:14;;;;;;;3.83;1.23;;;;;;;;;;5012327;28;20276;-76
2021/05/10 05:16:40;;;;;;;2.47;1.38;;;;;;;;;;5012168;28;20265;-74
2021/05/10 05:19:05;;;;;;;2.88;1.20;;;;;;;;;;5012084;28;20406;-74
2021/05/10 05:21:30;;;;;;;3.77;1.30;;;;;;;;;;5011344;28;20030;-76
2021/05/10 05:23:55;;;;;;;3.70;1.75;;;;;;;;;;5009411;28;20317;-76
2021/05/10 05:26:20;;;;;;;4.77;1.40;;;;;;;;;;5010741;28;20057;-76
2021/05/10 05:28:46;;;;;;;3.22;1.40;;;;;;;;;;5011507;28;20558;-76
2021/05/10 05:31:11;;;;;;;5.25;1.48;;;;;;;;;;5010164;28;20059;-76
2021/05/10 05:33:36;;;;;;;3.05;1.38;;;;;;;;;;5010247;28;20034;-74
2021/05/10 05:36:01;;;;;;;5.23;1.50;;;;;;;;;;5010666;28;20117;-76
2021/05/10 05:38:30;;;;;;;6.60;1.42;;;;;;;;;;5010802;28;20297;-76
2021/05/10 05:40:55;;;;;;;4.13;1.50;;;;;;;;;;5011476;28;20385;-75
2021/05/10 05:43:21;;;;;;;4.23;1.47;;;;;;;;;;5011637;28;20075;-75
2021/05/10 05:45:46;;;;;;;3.30;1.13;;;;;;;;;;4994921;28;20498;-75
2021/05/10 05:48:12;;;;;;;3.33;1.40;;;;;;;;;;5013879;28;20025;-75
2021/05/10 05:50:38;;;;;;;4.28;1.13;;;;;;;;;;5011272;28;20052;-76
2021/05/10 05:53:03;;;;;;;2.50;1.30;;;;;;;;;;5011191;28;20108;-76
2021/05/10 05:55:29;;;;;;;3.70;1.15;;;;;;;;;;4991716;28;20041;-76
2021/05/10 05:57:56;;;;;;;4.30;1.50;;;;;;;;;;5009856;28;20510;-76
2021/05/10 06:00:21;;;;;;;2.78;1.15;;;;;;;;;;5010702;28;20038;-76
2021/05/10 06:02:47;;;;;;;2.97;1.30;;;;;;;;;;5013136;28;20157;-77
2021/05/10 06:05:13;;;;;;;2.33;1.00;;;;;;;;;;5009685;28;20464;-77
2021/05/10 06:07:42;;;;;;;1.98;1.27;;;;;;;;;;4992675;28;20343;-77
2021/05/10 06:10:08;;;;;;;4.75;1.40;;;;;;;;;;5005455;28;20061;-75
2021/05/10 06:12:33;;;;;;;4.63;1.25;;;;;;;;;;5006697;28;20567;-76
2021/05/10 06:14:58;;;;;;;1.60;1.00;;;;;;;;;;5011133;28;20018;-78
2021/05/10 06:17:23;;;;;;;4.85;1.30;;;;;;;;;;4989762;28;20125;-77
2021/05/10 06:19:49;;;;;;;4.47;1.60;;;;;;;;;;5010298;28;20465;-77
2021/05/10 06:22:15;;;;;;;9.73;1.50;;;;;;;;;;5010121;28;20292;-76
2021/05/10 06:24:40;;;;;;;2.78;1.13;;;;;;;;;;4992782;28;20029;-75
2021/05/10 06:27:05;;;;;;;18.00;1.50;;;;;;;;;;5010631;28;20033;-77
2021/05/10 06:29:31;;;;;;;3.85;1.30;;;;;;;;;;5009591;28;20022;-77
2021/05/10 06:31:56;;;;;;;3.03;1.30;;;;;;;;;;5010521;28;20104;-77
2021/05/10 06:34:21;;;;;;;4.18;1.10;;;;;;;;;;4991720;28;20056;-77
2021/05/10 06:36:46;;;;;;;4.47;1.20;;;;;;;;;;5010732;28;20022;-76
2021/05/10 06:39:12;;;;;;;2.97;1.00;;;;;;;;;;5010386;28;20311;-75
2021/05/10 06:41:37;;;;;;;5.30;1.52;;;;;;;;;;5009728;28;20355;-77
2021/05/10 06:44:02;;;;;;;3.70;1.48;;;;;;;;;;5010309;28;20076;-76
2021/05/10 06:46:27;;;;;;;4.30;1.58;;;;;;;;;;5010603;28;20543;-77
2021/05/10 06:48:52;;;;;;;3.38;1.50;;;;;;;;;;5010651;28;20602;-77
2021/05/10 06:51:18;;;;;;;4.23;1.20;;;;;;;;;;5009249;28;20025;-76
2021/05/10 06:53:43;;;;;;;4.68;1.50;;;;;;;;;;4997383;28;20450;-77
2021/05/10 06:56:08;;;;;;;4.38;1.40;;;;;;;;;;5009803;28;20021;-76
2021/05/10 06:58:33;;;;;;;2.42;1.30;;;;;;;;;;5009624;28;20496;-77
2021/05/10 07:00:59;;;;;;;2.55;1.27;;;;;;;;;;5009517;28;20025;-77
2021/05/10 07:03:24;;;;;;;2.67;1.30;;;;;;;;;;5008876;28;20127;-78
2021/05/10 07:05:49;;;;;;;5.15;1.15;;;;;;;;;;5009429;28;20261;-76
2021/05/10 07:08:15;;;;;;;3.40;1.27;;;;;;;;;;5009328;28;20022;-76
2021/05/10 07:10:44;;;;;;;3.97;1.17;;;;;;;;;;5008359;28;20594;-76
2021/05/10 07:13:09;;;;;;;3.95;1.48;;;;;;;;;;5009031;28;20037;-76
2021/05/10 07:15:34;;;;;;;2.53;1.20;;;;;;;;;;5009536;28;20030;-76
2021/05/10 07:18:01;;;;;;;3.53;1.40;;;;;;;;;;5009987;28;20311;-76
2021/05/10 07:20:27;;;;;;;2.22;1.30;;;;;;;;;;5008567;28;20477;-76
2021/05/10 07:22:52;;;;;;;3.53;1.30;;;;;;;;;;5009346;28;20081;-77
2021/05/10 07:25:17;;;;;;;5.00;1.83;;;;;;;;;;5011531;28;20118;-77
2021/05/10 07:27:42;;;;;;;2.92;1.40;;;;;;;;;;5009608;28;20620;-77
2021/05/10 07:30:08;;;;;;;3.10;1.67;;;;;;;;;;5007009;28;20037;-76
2021/05/10 07:32:33;;;;;;;2.85;1.27;;;;;;;;;;5009264;28;20273;-77
2021/05/10 07:34:58;;;;;;;7.47;1.40;;;;;;;;;;5009198;28;20025;-77
2021/05/10 07:37:23;;;;;;;4.25;1.20;;;;;;;;;;5009208;28;20602;-77
2021/05/10 07:39:49;;;;;;;4.70;1.20;;;;;;;;;;5009075;28;20036;-77
2021/05/10 07:42:14;;;;;;;7.30;1.40;;;;;;;;;;5008914;28;20798;-75
2021/05/10 07:44:39;;;;;;;3.17;1.17;;;;;;;;;;5009172;28;20453;-75
2021/05/10 07:47:04;;;;;;;3.07;1.20;;;;;;;;;;5008897;28;20267;-77
2021/05/10 07:49:29;;;;;;;6.05;1.70;;;;;;;;;;5008893;28;20256;-78
2021/05/10 07:51:55;;;;;;;2.17;1.08;;;;;;;;;;5008342;28;20018;-77
2021/05/10 07:54:20;;;;;;;3.13;1.05;;;;;;;;;;5008387;28;20048;-77
2021/05/10 07:56:45;;;;;;;4.18;1.42;;;;;;;;;;5009387;28;20049;-77
2021/05/10 07:59:11;;;;;;;5.67;1.43;;;;;;;;;;5009334;28;20024;-76
2021/05/10 08:01:36;;;;;;;4.63;1.08;;;;;;;;;;5011722;28;20363;-77
2021/05/10 08:04:02;;;;;;;4.97;1.40;;;;;;;;;;4994892;28;20156;-76
2021/05/10 08:06:28;;;;;;;4.20;1.30;;;;;;;;;;5012621;28;20045;-76
2021/05/10 08:08:54;;;;;;;2.60;1.23;;;;;;;;;;5012553;28;20115;-77
2021/05/10 08:11:19;;;;;;;3.05;1.35;;;;;;;;;;5012298;28;20705;-76
2021/05/10 08:13:44;;;;;;;3.10;0.90;;;;;;;;;;5000224;28;20025;-76
2021/05/10 08:16:09;;;;;;;2.80;1.07;;;;;;;;;;5012410;28;20079;-76
2021/05/10 08:18:41;;;;;;;1.67;1.03;;;;;;;;;;5012634;28;20261;-77
2021/05/10 08:21:06;;;;;;;2.55;1.00;;;;;;;;;;5012299;28;20280;-76
2021/05/10 08:23:31;;;;;;;3.13;1.00;;;;;;;;;;5011311;28;20185;-76
2021/05/10 08:25:56;;;;;;;2.40;1.20;;;;;;;;;;5012999;28;20347;-76
2021/05/10 08:28:21;;;;;;;2.77;1.17;;;;;;;;;;5012653;28;20524;-75
2021/05/10 08:30:47;;;;;;;2.33;1.00;;;;;;;;;;5011586;28;20025;-76
2021/05/10 08:33:13;;;;;;;4.05;1.20;;;;;;;;;;5012181;28;20272;-76
2021/05/10 08:35:38;;;;;;;2.67;1.40;;;;;;;;;;5012028;28;20113;-76
2021/05/10 08:38:03;;;;;;;2.87;1.10;;;;;;;;;;5012365;28;20268;-76
2021/05/10 08:40:29;;;;;;;3.13;1.00;;;;;;;;;;5011287;28;20300;-76
2021/05/10 08:42:54;;;;;;;1.80;1.00;;;;;;;;;;5011808;28;20303;-75
2021/05/10 08:45:21;;;;;;;2.92;1.15;;;;;;;;;;4993913;28;20124;-76
2021/05/10 08:47:47;;;;;;;2.63;1.08;;;;;;;;;;5011787;28;20025;-77
2021/05/10 08:50:12;;;;;;;3.75;1.20;;;;;;;;;;5012138;28;20014;-77
2021/05/10 08:52:38;;;;;;;3.88;1.20;;;;;;;;;;5012245;28;20022;-76
2021/05/10 08:55:03;;;;;;;4.20;1.15;;;;;;;;;;5017829;28;20064;-77
2021/05/10 08:57:29;;;;;;;2.65;1.42;;;;;;;;;;4994301;28;20449;-76
2021/05/10 08:59:54;;;;;;;2.90;1.17;;;;;;;;;;4991113;28;20025;-75
2021/05/10 09:02:39;;;;;;;2.30;1.13;;;;;;;;;;5011924;28;20284;-76
2021/05/10 09:05:17;;;;;;;4.53;1.42;;;;;;;;;;5012411;28;20265;-77
2021/05/10 09:07:43;;;;;;;5.20;1.30;;;;;;;;;;5013254;28;20022;-76
2021/05/10 09:10:12;;;;;;;5.80;1.70;;;;;;;;;;5012141;28;20022;-76
2021/05/10 09:12:42;;;;;;;1.88;0.93;;;;;;;;;;5013533;28;20018;-76
2021/05/10 09:15:19;;;;;;;3.75;1.17;;;;;;;;;;5014121;28;20026;-76
2021/05/10 09:17:46;;;;;;;4.10;1.20;;;;;;;;;;5014386;28;20385;-76
2021/05/10 09:20:19;;;;;;;4.40;1.00;;;;;;;;;;5011421;28;20466;-76
2021/05/10 09:22:48;;;;;;;2.78;1.25;;;;;;;;;;5012112;28;20072;-76
2021/05/10 09:25:13;;;;;;;3.22;1.10;;;;;;;;;;4993613;28;20493;-76
2021/05/10 09:27:39;;;;;;;4.17;0.93;;;;;;;;;;5011327;28;20049;-76
2021/05/10 09:30:17;;;;;;;2.90;1.00;;;;;;;;;;5011409;28;20379;-76
2021/05/10 09:32:50;;;;;;;2.92;1.13;;;;;;;;;;5010892;28;20018;-76
2021/05/10 09:35:19;;;;;;;3.17;1.00;;;;;;;;;;5011040;28;20029;-76
2021/05/10 09:37:51;;;;;;;4.28;0.98;;;;;;;;;;5010621;28;20041;-76
2021/05/10 09:40:17;;;;;;;2.72;0.90;;;;;;;;;;5011206;28;20029;-77
2021/05/10 09:43:11;;;;;;;1.97;1.00;;;;;;;;;;5012038;28;20070;-75
2021/05/10 09:45:41;;;;;;;5.97;1.33;;;;;;;;;;4938431;29;20651;-76
2021/05/10 09:48:07;;;;;;;5.97;1.00;;;;;;;;;;4938076;29;20055;-75
2021/05/10 09:50:36;;;;;;;4.55;0.90;;;;;;;;;;4944433;29;20514;-76
2021/05/10 09:53:02;;;;;;;2.30;1.00;;;;;;;;;;4940643;29;20023;-77
2021/05/10 09:55:46;;;;;;;1.45;0.90;;;;;;;;;;4949370;28;20517;-77
2021/05/10 09:58:12;;;;;;;4.43;1.30;;;;;;;;;;4964990;28;20102;-76
2021/05/10 10:00:38;;;;;;;6.38;1.45;;;;;;;;;;4955940;28;20027;-76
2021/05/10 10:03:04;;;;;;;2.63;1.30;;;;;;;;;;4967613;28;20070;-77
2021/05/10 10:05:29;;;;;;;5.18;1.15;;;;;;;;;;4964406;28;20077;-76
2021/05/10 10:07:55;;;;;;;2.92;1.30;;;;;;;;;;4962015;28;20030;-75
2021/05/10 10:10:20;;;;;;;5.00;1.08;;;;;;;;;;4956562;28;20027;-75
2021/05/10 10:12:45;;;;;;;5.10;1.15;;;;;;;;;;4963077;28;20034;-75
2021/05/10 10:15:11;;;;;;;2.50;0.90;;;;;;;;;;4952555;28;20030;-76
2021/05/10 10:17:36;;;;;;;4.68;1.00;;;;;;;;;;4968730;28;20777;-76
2021/05/10 10:20:04;;;;;;;5.18;1.00;;;;;;;;;;4950853;28;20454;-76
2021/05/10 10:22:29;;;;;;;2.50;0.85;;;;;;;;;;4976774;28;20529;-76
2021/05/10 10:24:55;;;;;;;3.65;1.10;;;;;;;;;;4993183;28;20142;-76
2021/05/10 10:27:21;;;;;;;4.15;1.25;;;;;;;;;;4990901;28;20032;-76
2021/05/10 10:29:47;;;;;;;3.38;1.10;;;;;;;;;;4990712;28;20030;-75
2021/05/10 10:32:17;;;;;;;4.97;1.20;;;;;;;;;;4989955;28;20246;-75
2021/05/10 10:34:45;;;;;;;2.80;1.02;;;;;;;;;;4991277;28;20019;-75
2021/05/10 10:37:10;;;;;;;3.25;0.90;;;;;;;;;;4990654;28;20397;-77
2021/05/10 10:39:37;;;;;;;5.82;1.10;;;;;;;;;;4990703;28;20025;-76
2021/05/10 10:42:04;;;;;;;3.20;1.13;;;;;;;;;;4989307;28;20014;-76
2021/05/10 10:44:30;;;;;;;2.30;0.85;;;;;;;;;;4990626;28;20080;-75
2021/05/10 10:46:55;;;;;;;2.83;1.13;;;;;;;;;;4990456;28;20101;-75
2021/05/10 10:49:36;;;;;;;2.38;0.90;;;;;;;;;;4989818;28;20029;-75
2021/05/10 10:52:03;;;;;;;2.42;1.10;;;;;;;;;;4972981;28;20037;-76
2021/05/10 10:54:30;;;;;;;5.97;1.25;;;;;;;;;;4988634;28;20078;-77
2021/05/10 10:57:00;;;;;;;2.25;0.88;;;;;;;;;;4990526;28;20161;-76
2021/05/10 10:59:26;;;;;;;4.00;1.27;;;;;;;;;;4990007;28;20415;-76
2021/05/10 11:01:52;;;;;;;2.47;1.00;;;;;;;;;;4989555;28;20438;-76
2021/05/10 11:04:22;;;;;;;3.42;0.85;;;;;;;;;;4989998;28;20076;-75
2021/05/10 11:06:48;;;;;;;5.65;1.25;;;;;;;;;;4990349;28;20038;-76
2021/05/10 11:09:13;;;;;;;3.35;1.08;;;;;;;;;;4990242;28;20023;-75
2021/05/10 11:11:39;;;;;;;3.43;1.03;;;;;;;;;;4989651;28;20034;-75
2021/05/10 11:14:04;;;;;;;3.67;1.27;;;;;;;;;;4986923;28;20334;-76
2021/05/10 11:16:46;;;;;;;2.93;1.23;;;;;;;;;;4990099;28;20169;-76
2021/05/10 11:19:31;;;;;;;2.30;0.90;;;;;;;;;;4982675;28;20270;-75
2021/05/10 11:21:57;;;;;;;4.38;0.90;;;;;;;;;;4984928;28;20114;-75
2021/05/10 11:24:29;;;;;;;5.95;1.10;;;;;;;;;;4989568;28;20479;-76
2021/05/10 11:26:56;;;;;;;3.08;1.45;;;;;;;;;;4983771;28;20029;-76
2021/05/10 11:29:24;;;;;;;3.70;1.15;;;;;;;;;;4982736;28;20022;-75
2021/05/10 11:31:49;;;;;;;3.20;1.10;;;;;;;;;;4989768;28;20027;-76
2021/05/10 11:34:22;;;;;;;3.60;1.30;;;;;;;;;;4989531;28;20057;-76
2021/05/10 11:36:52;;;;;;;2.20;0.88;;;;;;;;;;4989400;28;20030;-76
2021/05/10 11:39:25;;;;;;;3.95;1.17;;;;;;;;;;4984982;28;20113;-75
2021/05/10 11:41:59;;;;;;;4.78;1.23;;;;;;;;;;4985482;28;20030;-76
2021/05/10 11:44:26;;;;;;;2.83;0.95;;;;;;;;;;4983248;28;20153;-76
2021/05/10 11:46:52;;;;;;;6.47;1.70;;;;;;;;;;4985964;28;20033;-75
2021/05/10 11:49:25;;;;;;;6.68;1.20;;;;;;;;;;4987932;28;20015;-76
2021/05/10 11:51:50;;;;;;;1.95;1.00;;;;;;;;;;4981847;28;20384;-75
2021/05/10 11:54:16;;;;;;;5.78;1.42;;;;;;;;;;4972816;28;20092;-76
2021/05/10 11:56:45;;;;;;;2.90;1.23;;;;;;;;;;5003164;28;20026;-77
2021/05/10 12:01:54;;;;;;;2.47;1.10;;;;;;;;;;4994539;28;20128;-77
2021/05/10 12:04:23;;;;;;;4.13;0.95;;;;;;;;;;4996797;28;20165;-77
2021/05/10 12:06:49;;;;;;;3.30;1.20;;;;;;;;;;4993715;28;20361;-77
2021/05/10 12:09:30;;;;;;;2.88;1.15;;;;;;;;;;4990386;28;20088;-77
2021/05/10 12:11:55;;;;;;;3.28;1.00;;;;;;;;;;5003097;28;20026;-74
2021/05/10 12:14:22;;;;;;;1.30;0.80;;;;;;;;;;5009483;28;20080;-75
2021/05/10 12:17:03;;;;;;;2.45;0.82;;;;;;;;;;5001024;28;20022;-77
2021/05/10 12:19:47;;;;;;;2.80;0.95;;;;;;;;;;4999822;28;20026;-75
2021/05/10 12:22:12;;;;;;;2.65;0.93;;;;;;;;;;4998650;28;20038;-78
2021/05/10 12:24:53;;;;;;;2.40;1.17;;;;;;;;;;4993102;28;20093;-78
2021/05/10 12:27:18;;;;;;;5.72;1.20;;;;;;;;;;4993551;28;20068;-75
2021/05/10 12:29:43;;;;;;;4.63;1.17;;;;;;;;;;4986847;28;20026;-76
2021/05/10 12:32:09;;;;;;;3.58;1.30;;;;;;;;;;4990454;28;20061;-75
2021/05/10 12:34:34;;;;;;;6.57;1.35;;;;;;;;;;4989632;28;20030;-77
2021/05/10 12:36:59;;;;;;;2.92;1.05;;;;;;;;;;4991813;28;20093;-75
2021/05/10 12:39:28;;;;;;;3.20;1.13;;;;;;;;;;4989395;28;20050;-74
2021/05/10 12:42:10;;;;;;;3.38;1.05;;;;;;;;;;4988679;28;20282;-73
2021/05/10 12:44:35;;;;;;;5.43;0.90;;;;;;;;;;5001399;28;20112;-74
2021/05/10 12:47:01;;;;;;;3.30;1.00;;;;;;;;;;5004989;28;20108;-74
2021/05/10 12:49:26;;;;;;;2.80;1.10;;;;;;;;;;4995782;28;20273;-75
2021/05/10 12:51:52;;;;;;;4.82;1.73;;;;;;;;;;5005638;28;20014;-73
2021/05/10 12:54:17;;;;;;;3.25;1.10;;;;;;;;;;4981093;28;20054;-73
2021/05/10 12:56:43;;;;;;;3.80;1.42;;;;;;;;;;5013400;28;20054;-74
2021/05/10 12:59:08;;;;;;;6.47;1.23;;;;;;;;;;5010383;28;20089;-76
2021/05/10 13:01:34;;;;;;;2.97;0.93;;;;;;;;;;5011499;28;20116;-74
2021/05/10 13:04:06;;;;;;;4.00;0.90;;;;;;;;;;5011364;28;20030;-74
2021/05/10 13:06:34;;;;;;;4.40;1.35;;;;;;;;;;5010622;28;20022;-74
2021/05/10 13:09:01;;;;;;;3.63;0.95;;;;;;;;;;5007736;28;20022;-74
2021/05/10 13:11:49;;;;;;;5.43;1.50;;;;;;;;;;5013016;28;20064;-72
2021/05/10 13:14:19;;;;;;;5.28;1.35;;;;;;;;;;4993810;28;20030;-73
2021/05/10 13:16:55;;;;;;;3.53;1.15;;;;;;;;;;5011312;28;20046;-73
2021/05/10 13:33:24;;;;;;;4.50;1.15;;;;;;;;;;5008634;28;20057;-74
2021/05/10 13:36:03;;;;;;;4.07;0.90;;;;;;;;;;5011075;28;20109;-72
2021/05/10 13:38:30;;;;;;;7.75;1.40;;;;;;;;;;5007437;28;20025;-78
2021/05/10 13:40:55;;;;;;;3.47;1.27;;;;;;;;;;5011835;28;20554;-73
2021/05/10 13:46:08;;;;;;;2.92;1.10;;;;;;;;;;4976900;28;20046;-77
2021/05/10 13:48:34;;;;;;;3.13;1.17;;;;;;;;;;4985551;28;20038;-78
2021/05/10 13:50:59;;;;;;;6.75;1.77;;;;;;;;;;4987578;28;20301;-74
2021/05/10 13:53:24;;;;;;;8.17;1.30;;;;;;;;;;4988324;28;20058;-77
2021/05/10 13:55:50;;;;;;;3.77;1.60;;;;;;;;;;4987482;28;20277;-77
2021/05/10 13:58:15;;;;;;;6.47;1.30;;;;;;;;;;4988529;28;20808;-77
2021/05/10 14:00:40;;;;;;;4.13;1.10;;;;;;;;;;4987461;28;20378;-76
2021/05/10 14:03:05;;;;;;;6.73;1.30;;;;;;;;;;4989522;28;20313;-78
2021/05/10 14:05:34;;;;;;;7.80;1.83;;;;;;;;;;4987078;28;20265;-78
2021/05/10 14:07:59;;;;;;;8.50;1.77;;;;;;;;;;4987178;28;20030;-77
2021/05/10 14:10:25;;;;;;;6.70;1.30;;;;;;;;;;4985803;28;20486;-79
2021/05/10 14:12:50;;;;;;;6.03;1.40;;;;;;;;;;4971428;28;20107;-80
2021/05/10 14:15:15;;;;;;;3.57;1.40;;;;;;;;;;4988248;28;20153;-77
2021/05/10 14:17:41;;;;;;;7.03;1.30;;;;;;;;;;4982958;28;20038;-76
2021/05/10 14:20:09;;;;;;;5.50;1.10;;;;;;;;;;4969227;28;20170;-78
2021/05/10 14:22:35;;;;;;;4.40;1.10;;;;;;;;;;4975634;28;20591;-80
2021/05/10 14:25:00;;;;;;;5.63;1.40;;;;;;;;;;5009904;28;20113;-75
2021/05/10 14:27:25;;;;;;;4.82;1.10;;;;;;;;;;5009944;28;20383;-75
2021/05/10 14:29:50;;;;;;;7.10;1.40;;;;;;;;;;5005078;28;20381;-77
2021/05/10 14:32:15;;;;;;;5.32;1.50;;;;;;;;;;5009893;28;20261;-75
2021/05/10 14:34:41;;;;;;;4.50;1.08;;;;;;;;;;5010409;28;20021;-79
2021/05/10 14:37:07;;;;;;;5.70;1.23;;;;;;;;;;4992745;28;20084;-82
2021/05/10 14:39:32;;;;;;;6.70;1.33;;;;;;;;;;5010517;28;20485;-80
2021/05/10 14:41:57;;;;;;;5.93;1.50;;;;;;;;;;5010272;28;20429;-80
2021/05/10 14:44:23;;;;;;;9.00;1.25;;;;;;;;;;5011257;28;20020;-78
2021/05/10 14:46:48;;;;;;;5.78;1.10;;;;;;;;;;4992247;28;20109;-82
2021/05/10 14:49:14;;;;;;;4.72;1.45;;;;;;;;;;5010630;28;20072;-83
2021/05/10 14:51:40;;;;;;;6.25;1.42;;;;;;;;;;5010738;28;20037;-82
2021/05/10 14:54:09;;;;;;;5.55;1.60;;;;;;;;;;5000429;28;20042;-82
2021/05/10 14:56:34;;;;;;;6.43;1.25;;;;;;;;;;5010443;28;20088;-77
2021/05/10 14:59:00;;;;;;;7.47;1.40;;;;;;;;;;5009211;28;20022;-78
2021/05/10 15:01:25;;;;;;;5.25;1.60;;;;;;;;;;5009401;28;20033;-78
2021/05/10 15:03:50;;;;;;;4.27;1.60;;;;;;;;;;5009479;28;20026;-78
2021/05/10 15:06:18;;;;;;;5.00;1.33;;;;;;;;;;4989539;28;20269;-76
2021/05/10 15:08:43;;;;;;;3.47;1.30;;;;;;;;;;5009459;28;20392;-77